Time;durP1;ratioP1;P1;durP2;ratioP2;P2;SDS_P1;SDS_P2;PMS_P1;PMS_P2;Temp;Humidity;BMP_temperature;BMP_pressure;BME280_temperature;BME280_humidity;BME280_pressure;Samples;Min_cycle;Max_cycle;Signal;HPM_P1;HPM_P2
2021/05/04 00:01:58;;;;;;;13.00;2.22;;;;;;;;;;5073192;28;20476;-64
2021/05/04 00:04:25;;;;;;;18.02;2.33;;;;;;;;;;5054611;28;20104;-59
2021/05/04 00:06:52;;;;;;;14.20;2.88;;;;;;;;;;5071984;28;20125;-58
2021/05/04 00:09:19;;;;;;;19.92;2.85;;;;;;;;;;5073289;28;20020;-59
2021/05/04 00:11:46;;;;;;;17.00;3.03;;;;;;;;;;5067031;28;20032;-57
2021/05/04 00:14:13;;;;;;;21.10;7.28;;;;;;;;;;5056452;28;20021;-60
2021/05/04 00:16:41;;;;;;;28.17;9.43;;;;;;;;;;5055928;28;20025;-59
2021/05/04 00:19:08;;;;;;;25.67;6.60;;;;;;;;;;5036505;28;20017;-59
2021/05/04 00:21:35;;;;;;;26.90;8.02;;;;;;;;;;5061851;28;20120;-58
2021/05/04 00:24:02;;;;;;;28.83;9.80;;;;;;;;;;5056409;28;20096;-59
2021/05/04 00:26:29;;;;;;;22.60;11.52;;;;;;;;;;5038707;28;20252;-59
2021/05/04 00:28:56;;;;;;;32.53;11.77;;;;;;;;;;5055613;28;20082;-59
2021/05/04 00:31:23;;;;;;;30.25;11.88;;;;;;;;;;5054552;28;20029;-59
2021/05/04 00:33:50;;;;;;;28.05;11.98;;;;;;;;;;5075411;28;20024;-59
2021/05/04 00:36:17;;;;;;;29.77;10.95;;;;;;;;;;5072566;28;20025;-58
2021/05/04 00:38:44;;;;;;;30.58;10.95;;;;;;;;;;5072702;28;20016;-60
2021/05/04 00:41:11;;;;;;;36.85;11.85;;;;;;;;;;5073247;28;20031;-59
2021/05/04 00:43:38;;;;;;;29.08;10.88;;;;;;;;;;5070477;28;20025;-59
2021/05/04 00:46:05;;;;;;;33.67;11.82;;;;;;;;;;5073300;28;20105;-58
2021/05/04 00:48:33;;;;;;;43.22;11.07;;;;;;;;;;5072711;28;20029;-58
2021/05/04 00:51:01;;;;;;;30.88;10.98;;;;;;;;;;5073096;28;20126;-56
2021/05/04 00:53:30;;;;;;;30.00;10.98;;;;;;;;;;5072301;28;20498;-57
2021/05/04 00:55:58;;;;;;;29.80;10.43;;;;;;;;;;5070696;28;20535;-55
2021/05/04 00:58:25;;;;;;;26.10;10.50;;;;;;;;;;5047975;28;20072;-58
2021/05/04 01:00:52;;;;;;;30.70;9.88;;;;;;;;;;5052876;28;20033;-59
2021/05/04 01:03:20;;;;;;;28.15;9.93;;;;;;;;;;5035113;28;20036;-59
2021/05/04 01:05:47;;;;;;;27.23;10.00;;;;;;;;;;5051309;28;20024;-59
2021/05/04 01:08:14;;;;;;;28.27;9.90;;;;;;;;;;5063066;28;20021;-61
2021/05/04 01:10:42;;;;;;;24.63;10.65;;;;;;;;;;5054730;28;20025;-59
2021/05/04 01:13:09;;;;;;;24.83;9.75;;;;;;;;;;5034148;28;20100;-59
2021/05/04 01:15:36;;;;;;;27.30;10.60;;;;;;;;;;5051363;28;20054;-60
2021/05/04 01:18:03;;;;;;;27.70;10.32;;;;;;;;;;5066070;28;20024;-58
2021/05/04 01:20:30;;;;;;;19.42;9.98;;;;;;;;;;5073798;28;20068;-59
2021/05/04 01:22:57;;;;;;;29.25;10.80;;;;;;;;;;5073671;28;20368;-61
2021/05/04 01:25:24;;;;;;;22.00;9.93;;;;;;;;;;5073287;28;20023;-60
2021/05/04 01:27:51;;;;;;;21.17;10.32;;;;;;;;;;5073333;28;20021;-60
2021/05/04 01:30:19;;;;;;;30.40;10.95;;;;;;;;;;5073174;28;20078;-60
2021/05/04 01:32:46;;;;;;;24.25;10.27;;;;;;;;;;5073195;28;20012;-60
2021/05/04 01:35:13;;;;;;;20.38;9.90;;;;;;;;;;5073278;28;20127;-58
2021/05/04 01:37:40;;;;;;;25.77;10.18;;;;;;;;;;5068813;28;20025;-60
2021/05/04 01:40:08;;;;;;;20.35;9.82;;;;;;;;;;5072554;28;20472;-59
2021/05/04 01:42:35;;;;;;;26.27;10.13;;;;;;;;;;5073120;28;20112;-59
2021/05/04 01:45:02;;;;;;;19.10;8.80;;;;;;;;;;5052970;28;20020;-59
2021/05/04 01:47:29;;;;;;;18.20;9.02;;;;;;;;;;5055356;28;20481;-59
2021/05/04 01:49:56;;;;;;;25.75;9.40;;;;;;;;;;5073187;28;20042;-60
2021/05/04 01:52:23;;;;;;;22.52;8.80;;;;;;;;;;5073158;28;20529;-60
2021/05/04 01:54:50;;;;;;;21.23;8.93;;;;;;;;;;5073211;28;20028;-59
2021/05/04 01:57:17;;;;;;;17.20;8.32;;;;;;;;;;5073029;28;20158;-61
2021/05/04 01:59:45;;;;;;;22.48;7.93;;;;;;;;;;5072893;28;20050;-61
2021/05/04 02:02:12;;;;;;;14.98;7.65;;;;;;;;;;5073257;28;20029;-60
2021/05/04 02:04:39;;;;;;;15.23;7.80;;;;;;;;;;5073453;28;20096;-60
2021/05/04 02:07:06;;;;;;;15.85;7.47;;;;;;;;;;5073312;28;20048;-59
2021/05/04 02:09:33;;;;;;;15.13;6.70;;;;;;;;;;5068321;28;20043;-59
2021/05/04 02:12:00;;;;;;;17.83;7.32;;;;;;;;;;5073062;28;20028;-58
2021/05/04 02:14:27;;;;;;;14.48;6.90;;;;;;;;;;5072708;28;20027;-59
2021/05/04 02:16:55;;;;;;;17.13;6.75;;;;;;;;;;5072214;28;20029;-58
2021/05/04 02:19:22;;;;;;;14.20;6.30;;;;;;;;;;5072711;28;20512;-59
2021/05/04 02:21:49;;;;;;;14.20;6.45;;;;;;;;;;5072494;28;20033;-60
2021/05/04 02:24:16;;;;;;;14.50;6.65;;;;;;;;;;5072782;28;20099;-60
2021/05/04 02:26:43;;;;;;;12.43;6.47;;;;;;;;;;5072293;28;20031;-60
2021/05/04 02:29:10;;;;;;;12.57;6.20;;;;;;;;;;5054430;28;20382;-59
2021/05/04 02:31:37;;;;;;;10.82;6.07;;;;;;;;;;5072017;28;20430;-61
2021/05/04 02:34:04;;;;;;;11.38;5.80;;;;;;;;;;5072946;28;20044;-59
2021/05/04 02:36:31;;;;;;;14.65;5.75;;;;;;;;;;5072125;28;20096;-61
2021/05/04 02:38:58;;;;;;;13.07;5.57;;;;;;;;;;5072247;28;20020;-59
2021/05/04 02:41:26;;;;;;;12.82;5.75;;;;;;;;;;5072155;28;20059;-62
2021/05/04 02:43:56;;;;;;;9.70;5.07;;;;;;;;;;5072752;28;20028;-58
2021/05/04 02:46:43;;;;;;;9.52;5.18;;;;;;;;;;5072240;28;20016;-61
2021/05/04 02:49:10;;;;;;;10.02;5.18;;;;;;;;;;5057167;28;20020;-60
2021/05/04 02:51:37;;;;;;;11.88;5.13;;;;;;;;;;5053879;28;20124;-61
2021/05/04 02:54:04;;;;;;;12.13;5.10;;;;;;;;;;5053846;28;20357;-60
2021/05/04 02:56:31;;;;;;;8.70;4.55;;;;;;;;;;5071277;28;20020;-62
2021/05/04 02:58:58;;;;;;;12.23;4.70;;;;;;;;;;5053200;28;20052;-61
2021/05/04 03:01:27;;;;;;;15.30;4.95;;;;;;;;;;5072256;28;20412;-62
2021/05/04 03:03:54;;;;;;;8.48;4.35;;;;;;;;;;5071781;28;20035;-61
2021/05/04 03:06:21;;;;;;;9.52;4.15;;;;;;;;;;5071965;28;20021;-61
2021/05/04 03:08:48;;;;;;;10.65;4.28;;;;;;;;;;5071427;28;20017;-59
2021/05/04 03:11:15;;;;;;;9.45;4.25;;;;;;;;;;5071924;28;20107;-61
2021/05/04 03:13:42;;;;;;;7.55;4.20;;;;;;;;;;5071720;28;20396;-60
2021/05/04 03:16:09;;;;;;;10.00;4.10;;;;;;;;;;5072180;28;20028;-59
2021/05/04 03:18:36;;;;;;;8.50;4.70;;;;;;;;;;5071723;28;20044;-59
2021/05/04 03:21:04;;;;;;;7.93;4.15;;;;;;;;;;5053458;28;20115;-60
2021/05/04 03:23:31;;;;;;;8.57;4.13;;;;;;;;;;5063931;28;20025;-61
2021/05/04 03:25:59;;;;;;;8.80;4.05;;;;;;;;;;5071604;28;20100;-60
2021/05/04 03:28:26;;;;;;;9.30;3.92;;;;;;;;;;5071779;28;20051;-61
2021/05/04 03:30:53;;;;;;;9.50;4.00;;;;;;;;;;5071627;28;20025;-61
2021/05/04 03:33:20;;;;;;;7.60;3.88;;;;;;;;;;5071946;28;20021;-60
2021/05/04 03:35:47;;;;;;;8.70;3.50;;;;;;;;;;5071119;28;20028;-60
2021/05/04 03:38:14;;;;;;;6.28;3.70;;;;;;;;;;5071900;28;20112;-60
2021/05/04 03:40:41;;;;;;;6.10;3.33;;;;;;;;;;5070868;28;20388;-59
2021/05/04 03:43:08;;;;;;;5.55;3.30;;;;;;;;;;5053751;28;20025;-59
2021/05/04 03:45:35;;;;;;;7.47;3.53;;;;;;;;;;5071519;28;20024;-60
2021/05/04 03:48:02;;;;;;;8.27;3.90;;;;;;;;;;5071690;28;20430;-58
2021/05/04 03:50:30;;;;;;;5.50;2.97;;;;;;;;;;5070886;28;20025;-59
2021/05/04 03:52:59;;;;;;;6.68;3.20;;;;;;;;;;5071822;28;20032;-59
2021/05/04 03:55:26;;;;;;;7.68;3.40;;;;;;;;;;5071253;28;20496;-61
2021/05/04 03:57:53;;;;;;;6.57;3.05;;;;;;;;;;5071510;28;20041;-61
2021/05/04 04:00:21;;;;;;;5.38;2.83;;;;;;;;;;5071522;28;20570;-59
2021/05/04 04:02:48;;;;;;;8.73;3.10;;;;;;;;;;5071321;28;20028;-60
2021/05/04 04:05:18;;;;;;;7.18;3.10;;;;;;;;;;5071361;28;20020;-59
2021/05/04 04:07:45;;;;;;;11.32;2.88;;;;;;;;;;5070923;28;20027;-59
2021/05/04 04:10:13;;;;;;;6.70;2.63;;;;;;;;;;5071715;28;20021;-60
2021/05/04 04:12:40;;;;;;;7.60;2.70;;;;;;;;;;5071324;28;20028;-59
2021/05/04 04:15:09;;;;;;;5.95;2.63;;;;;;;;;;5073075;28;20047;-61
2021/05/04 04:17:36;;;;;;;8.88;3.30;;;;;;;;;;5074058;28;20028;-62
2021/05/04 04:20:04;;;;;;;4.63;2.20;;;;;;;;;;5074599;28;20036;-62
2021/05/04 04:22:31;;;;;;;6.85;2.58;;;;;;;;;;5074712;28;20051;-61
2021/05/04 04:25:01;;;;;;;5.78;2.17;;;;;;;;;;5075447;28;20024;-61
2021/05/04 04:27:28;;;;;;;5.35;2.63;;;;;;;;;;5074822;28;20035;-59
2021/05/04 04:29:55;;;;;;;4.63;2.25;;;;;;;;;;5074827;28;20029;-59
2021/05/04 04:32:23;;;;;;;6.40;2.58;;;;;;;;;;5074229;28;20023;-59
2021/05/04 04:34:52;;;;;;;4.47;1.80;;;;;;;;;;5057054;28;20038;-60
2021/05/04 04:37:20;;;;;;;4.72;2.28;;;;;;;;;;5074222;28;20029;-61
2021/05/04 04:39:47;;;;;;;4.50;2.05;;;;;;;;;;5056650;28;20040;-61
2021/05/04 04:42:15;;;;;;;3.97;1.98;;;;;;;;;;5074496;28;20029;-59
2021/05/04 04:44:42;;;;;;;5.25;2.28;;;;;;;;;;5074623;28;20028;-61
2021/05/04 04:47:11;;;;;;;5.50;1.92;;;;;;;;;;5074361;28;20495;-61
2021/05/04 04:49:38;;;;;;;3.50;2.00;;;;;;;;;;5074212;28;20040;-61
2021/05/04 04:52:06;;;;;;;4.43;2.05;;;;;;;;;;5074355;28;20024;-61
2021/05/04 04:54:33;;;;;;;4.25;2.13;;;;;;;;;;5074087;28;20029;-61
2021/05/04 04:57:01;;;;;;;4.95;2.00;;;;;;;;;;5074472;28;20518;-61
2021/05/04 04:59:28;;;;;;;6.72;2.38;;;;;;;;;;5073612;28;20159;-61
2021/05/04 05:01:56;;;;;;;4.30;1.85;;;;;;;;;;5074164;28;20078;-61
2021/05/04 05:04:24;;;;;;;4.07;2.00;;;;;;;;;;5074115;28;20024;-60
2021/05/04 05:06:51;;;;;;;3.20;1.80;;;;;;;;;;5074360;28;20044;-61
2021/05/04 05:09:18;;;;;;;4.68;1.70;;;;;;;;;;5073784;28;20016;-62
2021/05/04 05:11:45;;;;;;;7.03;1.60;;;;;;;;;;5074301;28;20025;-60
2021/05/04 05:14:12;;;;;;;3.15;1.92;;;;;;;;;;5073668;28;20028;-59
2021/05/04 05:16:40;;;;;;;5.70;1.80;;;;;;;;;;5056093;28;20028;-61
2021/05/04 05:19:07;;;;;;;4.15;1.77;;;;;;;;;;5073343;28;20063;-60
2021/05/04 05:21:37;;;;;;;3.50;1.77;;;;;;;;;;5073663;28;20404;-60
2021/05/04 05:24:04;;;;;;;3.47;1.45;;;;;;;;;;5073751;28;20443;-59
2021/05/04 05:26:31;;;;;;;4.15;1.50;;;;;;;;;;5073986;28;20024;-60
2021/05/04 05:28:58;;;;;;;3.22;1.60;;;;;;;;;;5074072;28;20025;-58
2021/05/04 05:31:28;;;;;;;6.88;1.95;;;;;;;;;;5073062;28;20032;-62
2021/05/04 05:33:56;;;;;;;3.97;1.92;;;;;;;;;;5073647;28;20086;-62
2021/05/04 05:36:23;;;;;;;3.00;1.40;;;;;;;;;;5073423;28;20028;-60
2021/05/04 05:38:50;;;;;;;3.50;1.40;;;;;;;;;;5055793;28;20032;-61
2021/05/04 05:41:17;;;;;;;3.17;1.70;;;;;;;;;;5072937;28;20074;-61
2021/05/04 05:43:44;;;;;;;3.15;1.30;;;;;;;;;;5073474;28;20031;-61
2021/05/04 05:46:11;;;;;;;2.63;1.30;;;;;;;;;;5072805;28;20533;-60
2021/05/04 05:48:38;;;;;;;3.08;1.58;;;;;;;;;;5073680;28;20025;-62
2021/05/04 05:51:06;;;;;;;3.85;2.05;;;;;;;;;;5072876;28;20028;-62
2021/05/04 05:53:33;;;;;;;2.72;1.45;;;;;;;;;;5073439;28;20078;-60
2021/05/04 05:56:00;;;;;;;3.15;1.50;;;;;;;;;;5072645;28;20025;-61
2021/05/04 05:58:27;;;;;;;2.75;1.33;;;;;;;;;;5073183;28;20123;-61
2021/05/04 06:00:56;;;;;;;3.85;1.52;;;;;;;;;;5072597;28;20083;-61
2021/05/04 06:03:24;;;;;;;3.40;1.27;;;;;;;;;;5073323;28;20451;-61
2021/05/04 06:05:52;;;;;;;2.20;1.35;;;;;;;;;;5072941;28;20035;-60
2021/05/04 06:08:19;;;;;;;2.30;1.13;;;;;;;;;;5073220;28;20031;-57
2021/05/04 06:10:47;;;;;;;2.58;1.20;;;;;;;;;;5072930;28;20016;-59
2021/05/04 06:13:14;;;;;;;2.70;1.50;;;;;;;;;;5072398;28;20028;-60
2021/05/04 06:15:43;;;;;;;1.83;1.00;;;;;;;;;;5073276;28;20021;-62
2021/05/04 06:18:10;;;;;;;2.55;1.20;;;;;;;;;;5072186;28;20199;-60
2021/05/04 06:20:37;;;;;;;5.05;1.40;;;;;;;;;;5072858;28;20033;-59
2021/05/04 06:23:05;;;;;;;1.58;1.00;;;;;;;;;;5072366;28;20092;-59
2021/05/04 06:25:32;;;;;;;2.47;1.02;;;;;;;;;;5072849;28;20031;-59
2021/05/04 06:28:07;;;;;;;2.30;1.10;;;;;;;;;;5071924;28;20388;-59
2021/05/04 06:30:38;;;;;;;3.65;1.17;;;;;;;;;;5073003;28;20070;-59
2021/05/04 06:33:15;;;;;;;2.30;0.90;;;;;;;;;;5053767;28;20028;-59
2021/05/04 06:35:43;;;;;;;2.20;1.00;;;;;;;;;;5072520;28;20021;-59
2021/05/04 06:38:16;;;;;;;2.42;1.10;;;;;;;;;;5071887;28;20021;-58
2021/05/04 06:40:42;;;;;;;;;;;;;;;;;;5072890;28;20115;-59
2021/05/04 06:43:09;;;;;;;3.13;1.10;;;;;;;;;;5072146;28;20356;-58
2021/05/04 06:45:36;;;;;;;1.50;0.90;;;;;;;;;;5072579;28;20032;-60
2021/05/04 06:48:04;;;;;;;1.98;0.88;;;;;;;;;;5071664;28;20024;-59
2021/05/04 06:50:31;;;;;;;2.92;1.00;;;;;;;;;;5072614;28;20039;-59
2021/05/04 06:52:58;;;;;;;2.10;1.00;;;;;;;;;;5072203;28;20025;-59
2021/05/04 06:55:25;;;;;;;1.70;0.98;;;;;;;;;;5054176;28;20070;-59
2021/05/04 06:57:52;;;;;;;2.97;0.85;;;;;;;;;;5072250;28;20048;-60
2021/05/04 07:00:24;;;;;;;2.13;1.00;;;;;;;;;;5071821;28;20082;-60
2021/05/04 07:02:51;;;;;;;1.92;0.98;;;;;;;;;;5071993;28;20032;-61
2021/05/04 07:05:19;;;;;;;1.40;0.98;;;;;;;;;;5071645;28;20024;-61
2021/05/04 07:07:46;;;;;;;2.80;0.85;;;;;;;;;;5054586;28;20028;-62
2021/05/04 07:10:13;;;;;;;1.70;0.80;;;;;;;;;;5071399;28;20388;-60
2021/05/04 07:12:41;;;;;;;1.70;0.70;;;;;;;;;;5072344;28;20083;-62
2021/05/04 07:15:08;;;;;;;1.35;0.80;;;;;;;;;;5071559;28;20013;-61
2021/05/04 07:17:35;;;;;;;1.63;0.80;;;;;;;;;;5072152;28;20488;-62
2021/05/04 07:20:02;;;;;;;2.15;0.77;;;;;;;;;;5071641;28;20039;-61
2021/05/04 07:22:30;;;;;;;1.70;0.82;;;;;;;;;;5071694;28;20724;-61
2021/05/04 07:24:57;;;;;;;2.05;0.90;;;;;;;;;;5071537;28;20051;-61
2021/05/04 07:27:24;;;;;;;4.95;0.90;;;;;;;;;;5072005;28;20036;-60
2021/05/04 07:29:51;;;;;;;1.40;0.68;;;;;;;;;;5053767;28;20361;-61
2021/05/04 07:32:19;;;;;;;1.60;0.50;;;;;;;;;;5071896;28;20032;-61
2021/05/04 07:34:46;;;;;;;2.38;0.80;;;;;;;;;;5071994;28;20135;-59
2021/05/04 07:37:14;;;;;;;1.85;0.60;;;;;;;;;;5071565;28;20028;-62
2021/05/04 07:39:41;;;;;;;1.38;0.73;;;;;;;;;;5071631;28;20029;-61
2021/05/04 07:42:08;;;;;;;0.90;0.70;;;;;;;;;;5071249;28;20070;-60
2021/05/04 07:44:35;;;;;;;1.63;0.80;;;;;;;;;;5072724;28;20048;-61
2021/05/04 07:47:03;;;;;;;1.27;0.60;;;;;;;;;;5057282;28;20471;-60
2021/05/04 07:49:33;;;;;;;1.48;0.63;;;;;;;;;;5075862;28;20055;-60
2021/05/04 07:52:01;;;;;;;2.00;0.68;;;;;;;;;;5075008;28;20487;-61
2021/05/04 07:54:28;;;;;;;1.77;0.70;;;;;;;;;;5075628;28;20040;-61
2021/05/04 07:56:55;;;;;;;0.98;0.70;;;;;;;;;;5075244;28;20024;-60
2021/05/04 07:59:23;;;;;;;2.03;0.60;;;;;;;;;;5075466;28;20083;-59
2021/05/04 08:01:50;;;;;;;0.77;0.60;;;;;;;;;;5075230;28;20028;-61
2021/05/04 08:04:17;;;;;;;2.97;0.80;;;;;;;;;;5075196;28;20411;-62
2021/05/04 08:06:44;;;;;;;1.40;0.60;;;;;;;;;;5057010;28;20107;-61
2021/05/04 08:09:11;;;;;;;1.05;0.50;;;;;;;;;;5075330;28;20017;-60
2021/05/04 08:11:38;;;;;;;1.05;0.50;;;;;;;;;;5074811;28;20111;-59
2021/05/04 08:14:06;;;;;;;1.88;0.55;;;;;;;;;;5075145;28;20024;-60
2021/05/04 08:16:34;;;;;;;1.77;0.65;;;;;;;;;;5074822;28;20376;-59
2021/05/04 08:19:01;;;;;;;1.58;0.60;;;;;;;;;;5075093;28;20027;-60
2021/05/04 08:21:33;;;;;;;1.27;0.60;;;;;;;;;;5075132;28;20075;-62
2021/05/04 08:24:00;;;;;;;1.20;0.60;;;;;;;;;;5074375;28;20036;-61
2021/05/04 08:26:27;;;;;;;0.70;0.50;;;;;;;;;;5074946;28;20090;-62
2021/05/04 08:28:55;;;;;;;2.03;0.50;;;;;;;;;;5057198;28;20048;-61
2021/05/04 08:31:23;;;;;;;1.10;0.40;;;;;;;;;;5075189;28;20023;-60
2021/05/04 08:33:51;;;;;;;1.30;0.55;;;;;;;;;;5074338;28;20044;-61
2021/05/04 08:36:18;;;;;;;1.25;0.40;;;;;;;;;;5074804;28;20655;-61
2021/05/04 08:38:45;;;;;;;1.40;0.52;;;;;;;;;;5074435;28;20023;-62
2021/05/04 08:41:14;;;;;;;1.38;0.40;;;;;;;;;;5056691;28;20418;-61
2021/05/04 08:43:42;;;;;;;1.63;0.47;;;;;;;;;;5074023;28;20020;-61
2021/05/04 08:46:10;;;;;;;1.85;0.60;;;;;;;;;;5074955;28;20024;-61
2021/05/04 08:48:42;;;;;;;1.10;0.45;;;;;;;;;;5074100;28;20027;-56
2021/05/04 08:51:09;;;;;;;1.40;0.50;;;;;;;;;;5074757;28;20091;-59
2021/05/04 08:53:37;;;;;;;2.30;0.40;;;;;;;;;;5056244;28;20488;-61
2021/05/04 08:56:04;;;;;;;1.40;0.30;;;;;;;;;;5073622;28;20036;-59
2021/05/04 08:58:32;;;;;;;1.05;0.40;;;;;;;;;;5073823;28;20059;-58
2021/05/04 09:00:59;;;;;;;0.80;0.30;;;;;;;;;;5074536;28;20033;-59
2021/05/04 09:03:37;;;;;;;1.02;0.52;;;;;;;;;;5074327;28;20032;-58
2021/05/04 09:06:25;;;;;;;0.22;0.20;;;;;;;;;;5074090;28;20035;-59
2021/05/04 09:08:59;;;;;;;0.30;0.30;;;;;;;;;;5065995;28;20461;-59
2021/05/04 09:11:51;;;;;;;1.00;0.40;;;;;;;;;;5071623;28;20107;-58
2021/05/04 09:17:13;;;;;;;0.63;0.30;;;;;;;;;;5074026;28;20028;-58
2021/05/04 09:19:56;;;;;;;1.02;0.40;;;;;;;;;;5072741;28;20036;-60
2021/05/04 09:22:36;;;;;;;0.52;0.30;;;;;;;;;;5073889;28;20423;-59
2021/05/04 09:25:04;;;;;;;0.70;0.40;;;;;;;;;;5073426;28;20020;-60
2021/05/04 09:27:31;;;;;;;0.65;0.30;;;;;;;;;;5073960;28;20104;-59
2021/05/04 09:30:03;;;;;;;0.68;0.35;;;;;;;;;;5073446;28;20024;-60
2021/05/04 09:32:34;;;;;;;1.38;0.40;;;;;;;;;;5073724;28;20035;-58
2021/05/04 09:35:02;;;;;;;0.57;0.40;;;;;;;;;;5073139;28;20064;-59
2021/05/04 09:37:33;;;;;;;0.80;0.40;;;;;;;;;;5073817;28;20024;-59
2021/05/04 09:40:20;;;;;;;0.95;0.45;;;;;;;;;;5073293;28;20035;-59
2021/05/04 09:42:49;;;;;;;0.63;0.30;;;;;;;;;;5073708;28;20074;-59
2021/05/04 09:45:23;;;;;;;0.63;0.30;;;;;;;;;;5072664;28;20063;-60
2021/05/04 09:48:23;;;;;;;0.73;0.30;;;;;;;;;;5073552;28;20025;-60
2021/05/04 09:51:04;;;;;;;0.77;0.30;;;;;;;;;;5018656;28;20041;-58
2021/05/04 09:53:59;;;;;;;0.52;0.40;;;;;;;;;;5073197;28;20029;-58
2021/05/04 09:56:32;;;;;;;0.70;0.40;;;;;;;;;;5071805;28;20024;-59
2021/05/04 09:58:59;;;;;;;0.77;0.30;;;;;;;;;;5072925;28;20048;-60
2021/05/04 10:01:29;;;;;;;1.17;0.40;;;;;;;;;;5072820;28;20107;-59
2021/05/04 10:03:57;;;;;;;0.73;0.38;;;;;;;;;;5073354;28;20025;-60
2021/05/04 10:06:24;;;;;;;0.70;0.30;;;;;;;;;;5072343;28;20021;-59
2021/05/04 10:08:52;;;;;;;0.50;0.35;;;;;;;;;;5072918;28;20131;-60
2021/05/04 10:11:20;;;;;;;0.70;0.30;;;;;;;;;;5073340;28;20020;-60
2021/05/04 10:13:54;;;;;;;0.95;0.40;;;;;;;;;;5054933;28;20393;-62
2021/05/04 10:16:24;;;;;;;3.38;0.90;;;;;;;;;;5072866;28;20104;-61
2021/05/04 10:18:58;;;;;;;1.30;0.30;;;;;;;;;;5071705;28;20024;-62
2021/05/04 10:21:26;;;;;;;1.73;0.40;;;;;;;;;;5072486;28;20032;-60
2021/05/04 10:23:53;;;;;;;1.42;0.32;;;;;;;;;;5072585;28;20027;-61
2021/05/04 10:26:21;;;;;;;0.88;0.40;;;;;;;;;;5072219;28;20504;-60
2021/05/04 10:28:56;;;;;;;1.52;0.38;;;;;;;;;;5069808;28;20078;-60
2021/05/04 10:31:33;;;;;;;1.60;0.32;;;;;;;;;;5072654;28;20070;-59
2021/05/04 10:34:20;;;;;;;1.10;0.40;;;;;;;;;;5071869;28;20064;-59
2021/05/04 10:36:47;;;;;;;3.03;0.50;;;;;;;;;;5055110;28;20039;-60
2021/05/04 10:39:32;;;;;;;1.70;0.60;;;;;;;;;;5071516;28;21401;-59
2021/05/04 10:42:00;;;;;;;7.13;0.50;;;;;;;;;;5071263;28;20040;-61
2021/05/04 10:44:28;;;;;;;4.70;0.50;;;;;;;;;;5071005;28;20028;-61
2021/05/04 10:46:57;;;;;;;5.93;0.70;;;;;;;;;;5071357;28;20107;-61
2021/05/04 10:49:42;;;;;;;5.32;0.60;;;;;;;;;;5070584;28;20507;-61
2021/05/04 10:52:09;;;;;;;6.22;0.70;;;;;;;;;;5070843;28;20560;-61
2021/05/04 10:54:55;;;;;;;1.95;0.70;;;;;;;;;;5050893;28;20445;-62
2021/05/04 10:57:22;;;;;;;2.65;0.80;;;;;;;;;;5066483;28;20061;-60
2021/05/04 10:59:51;;;;;;;3.20;0.40;;;;;;;;;;5071279;28;20056;-61
2021/05/04 11:02:18;;;;;;;6.47;0.80;;;;;;;;;;5072170;28;20487;-60
2021/05/04 11:04:46;;;;;;;5.32;1.55;;;;;;;;;;5087407;28;20034;-60
2021/05/04 11:07:13;;;;;;;2.53;0.70;;;;;;;;;;5092116;28;20050;-60
2021/05/04 11:09:40;;;;;;;6.47;1.20;;;;;;;;;;5091651;28;20422;-62
2021/05/04 11:12:08;;;;;;;8.10;0.70;;;;;;;;;;5086663;28;20095;-60
2021/05/04 11:14:39;;;;;;;8.73;0.60;;;;;;;;;;5086564;28;20039;-65
2021/05/04 11:17:08;;;;;;;10.23;0.88;;;;;;;;;;5076965;28;20354;-69
2021/05/04 11:19:40;;;;;;;42.50;3.75;;;;;;;;;;5052931;28;20036;-61
2021/05/04 11:22:09;;;;;;;40.88;2.90;;;;;;;;;;5064454;28;20021;-60
2021/05/04 11:24:37;;;;;;;29.63;1.63;;;;;;;;;;5051061;28;20070;-62
2021/05/04 11:27:07;;;;;;;19.23;1.67;;;;;;;;;;5049828;28;20100;-65
2021/05/04 11:29:34;;;;;;;20.13;1.52;;;;;;;;;;5050714;28;20032;-65
2021/05/04 11:32:11;;;;;;;9.50;1.10;;;;;;;;;;5057209;28;20492;-63
2021/05/04 11:34:38;;;;;;;13.00;1.40;;;;;;;;;;5034070;28;20036;-65
2021/05/04 11:37:06;;;;;;;9.15;1.10;;;;;;;;;;5055671;28;20499;-62
2021/05/04 11:39:33;;;;;;;24.15;2.05;;;;;;;;;;5032849;28;20064;-62
2021/05/04 11:42:01;;;;;;;18.85;1.90;;;;;;;;;;5062858;28;20111;-66
2021/05/04 11:44:35;;;;;;;19.05;2.25;;;;;;;;;;5050707;28;20037;-69
2021/05/04 11:47:20;;;;;;;15.23;1.67;;;;;;;;;;5047664;28;20021;-67
2021/05/04 11:49:47;;;;;;;18.30;1.63;;;;;;;;;;5044243;28;20028;-66
2021/05/04 11:52:17;;;;;;;10.70;1.40;;;;;;;;;;5048618;28;20424;-67
2021/05/04 11:54:46;;;;;;;15.18;1.23;;;;;;;;;;5059855;28;20017;-65
2021/05/04 11:57:13;;;;;;;13.38;2.00;;;;;;;;;;5049633;28;20021;-63
2021/05/04 11:59:40;;;;;;;11.95;1.80;;;;;;;;;;5048315;28;20061;-62
2021/05/04 12:02:07;;;;;;;12.32;1.67;;;;;;;;;;5050263;28;20505;-59
2021/05/04 12:04:51;;;;;;;10.45;1.33;;;;;;;;;;5031980;28;20388;-58
2021/05/04 12:07:34;;;;;;;12.60;1.60;;;;;;;;;;5048752;28;20077;-59
2021/05/04 12:10:02;;;;;;;15.70;1.67;;;;;;;;;;5050079;28;20542;-59
2021/05/04 12:12:48;;;;;;;16.02;2.13;;;;;;;;;;5047922;28;20040;-58
2021/05/04 12:15:17;;;;;;;21.05;2.08;;;;;;;;;;5048763;28;20078;-60
2021/05/04 12:18:04;;;;;;;16.88;2.00;;;;;;;;;;5048828;28;20116;-58
2021/05/04 12:20:36;;;;;;;18.58;2.03;;;;;;;;;;5041926;28;20040;-59
2021/05/04 12:23:06;;;;;;;19.70;2.25;;;;;;;;;;5047652;28;20032;-60
2021/05/04 12:25:39;;;;;;;14.70;2.00;;;;;;;;;;5050106;28;20025;-53
2021/05/04 12:28:09;;;;;;;18.15;2.08;;;;;;;;;;5049738;28;20017;-59
2021/05/04 12:30:36;;;;;;;20.10;1.73;;;;;;;;;;5050051;28;20048;-52
2021/05/04 12:33:03;;;;;;;16.00;2.05;;;;;;;;;;5052760;28;20473;-57
2021/05/04 12:35:38;;;;;;;12.38;1.40;;;;;;;;;;5051788;28;20025;-58
2021/05/04 12:38:07;;;;;;;15.15;1.65;;;;;;;;;;5066555;28;20495;-60
2021/05/04 12:40:37;;;;;;;10.32;1.65;;;;;;;;;;5058835;28;20404;-59
2021/05/04 12:43:11;;;;;;;10.90;2.03;;;;;;;;;;5073140;28;20024;-59
2021/05/04 12:45:38;;;;;;;18.05;1.70;;;;;;;;;;5072961;28;20549;-60
2021/05/04 12:48:06;;;;;;;9.73;1.50;;;;;;;;;;5053698;28;20029;-60
2021/05/04 12:50:34;;;;;;;12.60;1.60;;;;;;;;;;5052794;28;20037;-60
2021/05/04 12:53:03;;;;;;;12.60;1.73;;;;;;;;;;5053306;28;20017;-64
2021/05/04 12:55:30;;;;;;;15.68;1.92;;;;;;;;;;5052344;28;20025;-59
2021/05/04 12:58:13;;;;;;;15.57;1.40;;;;;;;;;;5052284;28;20049;-60
2021/05/04 13:00:41;;;;;;;15.05;1.90;;;;;;;;;;5051192;28;20599;-59
2021/05/04 13:03:16;;;;;;;8.20;1.33;;;;;;;;;;5053607;28;20033;-60
2021/05/04 13:05:43;;;;;;;15.48;1.67;;;;;;;;;;5052934;28;20036;-60
2021/05/04 13:08:11;;;;;;;10.55;1.70;;;;;;;;;;5052678;28;20029;-60
2021/05/04 13:10:47;;;;;;;14.85;1.30;;;;;;;;;;5050703;28;20041;-60
2021/05/04 13:13:44;;;;;;;23.02;2.20;;;;;;;;;;5052051;28;20487;-58
2021/05/04 13:28:15;;;;;;;14.50;1.65;;;;;;;;;;5052821;28;20036;-60
2021/05/04 13:30:28;;;;;;;20.50;1.52;;;;;;;;;;5052630;28;20032;-56
2021/05/04 13:32:59;;;;;;;6.88;1.25;;;;;;;;;;5069216;28;20024;-58
2021/05/04 13:35:30;;;;;;;11.80;1.80;;;;;;;;;;5055804;28;20036;-59
2021/05/04 13:44:41;;;;;;;12.90;1.35;;;;;;;;;;5058293;28;20458;-59
2021/05/04 13:48:48;;;;;;;13.15;1.60;;;;;;;;;;5071724;28;20027;-58
2021/05/04 13:51:15;;;;;;;10.70;1.38;;;;;;;;;;5072702;28;20028;-59
2021/05/04 13:53:42;;;;;;;7.82;1.13;;;;;;;;;;5072303;28;20073;-58
2021/05/04 13:56:09;;;;;;;8.00;1.52;;;;;;;;;;5072861;28;20040;-58
2021/05/04 13:58:37;;;;;;;11.90;1.20;;;;;;;;;;5070267;28;20051;-60
2021/05/04 14:06:45;;;;;;;10.10;1.27;;;;;;;;;;5052584;28;20087;-60
2021/05/04 14:15:27;;;;;;;7.05;1.35;;;;;;;;;;5052011;28;20040;-59
2021/05/04 14:26:19;;;;;;;10.07;1.45;;;;;;;;;;5052383;28;20063;-59
2021/05/04 14:28:47;;;;;;;12.43;1.50;;;;;;;;;;5052944;28;20025;-61
2021/05/04 14:31:14;;;;;;;13.52;1.75;;;;;;;;;;5051439;28;20099;-61
2021/05/04 14:33:41;;;;;;;12.95;2.30;;;;;;;;;;5050782;28;20029;-58
2021/05/04 14:36:33;;;;;;;11.68;1.80;;;;;;;;;;5050235;28;20021;-60
2021/05/04 14:42:20;;;;;;;5.65;1.13;;;;;;;;;;5064248;28;20033;-51
2021/05/04 14:55:58;;;;;;;7.32;1.38;;;;;;;;;;5052500;28;20147;-58
2021/05/04 15:03:34;;;;;;;21.67;3.35;;;;;;;;;;5051376;28;20456;-50
2021/05/04 15:06:01;;;;;;;20.35;2.80;;;;;;;;;;5064710;28;20456;-57
2021/05/04 15:08:28;;;;;;;17.73;3.05;;;;;;;;;;5051493;28;20036;-56
2021/05/04 15:10:55;;;;;;;18.75;2.85;;;;;;;;;;5048326;28;20502;-54
2021/05/04 15:13:23;;;;;;;19.98;2.70;;;;;;;;;;5050931;28;20017;-51
2021/05/04 15:23:50;;;;;;;17.42;2.17;;;;;;;;;;5050045;28;20032;-57
2021/05/04 15:26:17;;;;;;;14.75;2.13;;;;;;;;;;5050626;28;20025;-59
2021/05/04 15:28:44;;;;;;;11.23;2.28;;;;;;;;;;5051421;28;20017;-58
2021/05/04 15:31:11;;;;;;;15.95;2.05;;;;;;;;;;5050533;28;20043;-59
2021/05/04 15:33:41;;;;;;;13.55;1.83;;;;;;;;;;5049782;28;20025;-61
2021/05/04 15:36:18;;;;;;;14.73;2.20;;;;;;;;;;5031812;28;20036;-60
2021/05/04 15:38:46;;;;;;;17.05;2.28;;;;;;;;;;5067858;28;20024;-60
2021/05/04 15:41:14;;;;;;;10.55;1.80;;;;;;;;;;5030412;28;20050;-59
2021/05/04 15:43:45;;;;;;;13.98;2.30;;;;;;;;;;5050880;28;20476;-60
2021/05/04 15:46:37;;;;;;;12.05;2.10;;;;;;;;;;5048969;28;20102;-64
2021/05/04 15:49:15;;;;;;;16.50;2.22;;;;;;;;;;5051053;28;20055;-59
2021/05/04 15:51:55;;;;;;;18.27;2.30;;;;;;;;;;5032966;28;20021;-60
2021/05/04 15:54:49;;;;;;;15.15;2.60;;;;;;;;;;5050700;28;20028;-61
2021/05/04 16:10:46;;;;;;;17.77;3.55;;;;;;;;;;5069566;28;20361;-60
2021/05/04 16:13:13;;;;;;;17.73;3.45;;;;;;;;;;5071678;28;20025;-61